Terminal Aerodrome Forecast
Issued by NWS

Home | Current Version | Previous Version | Text Only | Print | Product List | Glossary On
Versions: 1 2 3 4 5 6 7 8 9 10 11 12 13
000
FTUS46 KMTR 261127
TAFSJC
TAF
KSJC 261127Z 2612/2712 00000KT P6SM FEW030
     FM261400 13004KT P6SM SKC
     FM262100 30006KT P6SM BKN050
     FM270600 27005KT P6SM VCSH BKN050
     FM270800 16004KT P6SM VCSH SCT050=

USA.gov is the U.S. government's official web portal to all federal, state and local government web resources and services.